MOL Contribution — 7KAD — position and weather

sailwx.info

Track history (hours):
 
Tides and Currents Weather Stations Pressure Air Temp Water Temp Dewpoint Dewpoint Depression Visibility Wind Speed Wind Dir Waves Ship Positions

MOL Contribution

Last reported at 2018-Jun-15 12:55 UTC. Time now 2018-Jun-19 00:57 UTC.
Position N 09°40' W 079°44'.

Length 316 m; draft 13.2 m.

Type: Ship (hazmat cat A). MMSI: 431496000.

Date/timePositionNaut miles runAvg speedWind from/ knotsBaromVisibWave heightAir tempDewpointWater temp
2018-Jun-15 12:55N 09°40' W 079°44'1218.3
2018-Jun-15 12:16N 09°30' W 079°51'415.1
2018-Jun-15 12:00N 09°27' W 079°53'5 9.8
2018-Jun-15 11:30N 09°22' W 079°54'1 1.3
2018-Jun-15 10:58N 09°22' W 079°53'0 0.0
2018-Jun-15 10:28N 09°22' W 079°53'0 0.0
2018-Jun-15 09:58N 09°22' W 079°53'0 0.0
2018-Jun-15 09:28N 09°22' W 079°53'0 0.0
2018-Jun-15 08:58N 09°22' W 079°53'0 0.0
2018-Jun-15 08:28N 09°22' W 079°53'0 0.0
2018-Jun-15 07:58N 09°22' W 079°53'0 0.0
2018-Jun-15 07:28N 09°22' W 079°53'0 0.0
2018-Jun-15 06:58N 09°22' W 079°53'0 0.0
2018-Jun-15 06:25N 09°22' W 079°53'0 0.0
2018-Jun-15 05:58N 09°22' W 079°53'0 0.0
2018-Jun-15 05:28N 09°22' W 079°53'0 0.0
2018-Jun-15 04:58N 09°22' W 079°53'0 0.0
2018-Jun-15 04:28N 09°22' W 079°53'0 0.0
2018-Jun-15 03:58N 09°22' W 079°53'0 0.0
2018-Jun-15 03:28N 09°22' W 079°53'0 0.0
2018-Jun-15 02:58N 09°22' W 079°53'0 0.0
2018-Jun-15 02:28N 09°22' W 079°53'0 0.0
2018-Jun-15 01:58N 09°22' W 079°53'0 0.0
2018-Jun-15 01:28N 09°22' W 079°53'0 0.0
2018-Jun-15 00:58N 09°22' W 079°53'0 0.0
2018-Jun-15 00:28N 09°22' W 079°53'0 0.0
2018-Jun-14 23:58N 09°22' W 079°53'0 0.0
2018-Jun-14 23:30N 09°22' W 079°53'0 0.7
2018-Jun-14 23:00N 09°22' W 079°54'3 5.5
2018-Jun-14 22:29N 09°25' W 079°54'3 7.1
2018-Jun-14 22:00N 09°22' W 079°55'3 6.2
2018-Jun-14 21:30N 09°19' W 079°55'2 3.5
2018-Jun-14 21:00N 09°17' W 079°55'0 0.6
2018-Jun-14 20:30N 09°16' W 079°55'0 0.5
2018-Jun-14 20:00N 09°16' W 079°55'0 0.1
2018-Jun-14 19:28N 09°16' W 079°55'0 0.4
2018-Jun-14 18:59N 09°16' W 079°55'0 0.2
2018-Jun-14 18:30N 09°16' W 079°55'1 0.8
2018-Jun-14 17:51N 09°15' W 079°55'0 1.2
2018-Jun-14 17:30N 09°15' W 079°55'2 4.4
2018-Jun-14 17:00N 09°13' W 079°55'  
Track history (hours):
 
Tides and Currents Weather Stations Pressure Air Temp Water Temp Dewpoint Dewpoint Depression Visibility Wind Speed Wind Dir Waves Ship Positions

MOL Contribution

Last reported at 2018-Jun-15 12:55 UTC. Time now 2018-Jun-19 00:57 UTC.
Position N 09°40' W 079°44'.

Length 316 m; draft 13.2 m.

Type: Ship (hazmat cat A). MMSI: 431496000.

Date/timePositionNaut miles runAvg speedWind from/ knotsBaromVisibWave heightAir tempDewpointWater temp
2018-Jun-15 12:55N 09°40' W 079°44'1218.3
2018-Jun-15 12:16N 09°30' W 079°51'415.1
2018-Jun-15 12:00N 09°27' W 079°53'5 9.8
2018-Jun-15 11:30N 09°22' W 079°54'1 1.3
2018-Jun-15 10:58N 09°22' W 079°53'0 0.0
2018-Jun-15 10:28N 09°22' W 079°53'0 0.0
2018-Jun-15 09:58N 09°22' W 079°53'0 0.0
2018-Jun-15 09:28N 09°22' W 079°53'0 0.0
2018-Jun-15 08:58N 09°22' W 079°53'0 0.0
2018-Jun-15 08:28N 09°22' W 079°53'0 0.0
2018-Jun-15 07:58N 09°22' W 079°53'0 0.0
2018-Jun-15 07:28N 09°22' W 079°53'0 0.0
2018-Jun-15 06:58N 09°22' W 079°53'0 0.0
2018-Jun-15 06:25N 09°22' W 079°53'0 0.0
2018-Jun-15 05:58N 09°22' W 079°53'0 0.0
2018-Jun-15 05:28N 09°22' W 079°53'0 0.0
2018-Jun-15 04:58N 09°22' W 079°53'0 0.0
2018-Jun-15 04:28N 09°22' W 079°53'0 0.0
2018-Jun-15 03:58N 09°22' W 079°53'0 0.0
2018-Jun-15 03:28N 09°22' W 079°53'0 0.0
2018-Jun-15 02:58N 09°22' W 079°53'0 0.0
2018-Jun-15 02:28N 09°22' W 079°53'0 0.0
2018-Jun-15 01:58N 09°22' W 079°53'0 0.0
2018-Jun-15 01:28N 09°22' W 079°53'0 0.0
2018-Jun-15 00:58N 09°22' W 079°53'0 0.0
2018-Jun-15 00:28N 09°22' W 079°53'0 0.0
2018-Jun-14 23:58N 09°22' W 079°53'0 0.0
2018-Jun-14 23:30N 09°22' W 079°53'0 0.7
2018-Jun-14 23:00N 09°22' W 079°54'3 5.5
2018-Jun-14 22:29N 09°25' W 079°54'3 7.1
2018-Jun-14 22:00N 09°22' W 079°55'3 6.2
2018-Jun-14 21:30N 09°19' W 079°55'2 3.5
2018-Jun-14 21:00N 09°17' W 079°55'0 0.6
2018-Jun-14 20:30N 09°16' W 079°55'0 0.5
2018-Jun-14 20:00N 09°16' W 079°55'0 0.1
2018-Jun-14 19:28N 09°16' W 079°55'0 0.4
2018-Jun-14 18:59N 09°16' W 079°55'0 0.2
2018-Jun-14 18:30N 09°16' W 079°55'1 0.8
2018-Jun-14 17:51N 09°15' W 079°55'0 1.2
2018-Jun-14 17:30N 09°15' W 079°55'2 4.4
2018-Jun-14 17:00N 09°13' W 079°55'  

Dump ship's entire track history